sensor_id;sensor_type;location;lat;lon;timestamp;P1;durP1;ratioP1;P2;durP2;ratioP2
70592;SDS011;58294;42.988;20.338;2024-02-23T00:00:41;51.20;;;38.75;;
70592;SDS011;58294;42.988;20.338;2024-02-23T00:03:07;54.35;;;42.13;;
70592;SDS011;58294;42.988;20.338;2024-02-23T00:05:35;48.42;;;35.05;;
70592;SDS011;58294;42.988;20.338;2024-02-23T00:08:01;45.50;;;32.40;;
70592;SDS011;58294;42.988;20.338;2024-02-23T00:10:27;48.15;;;40.58;;
70592;SDS011;58294;42.988;20.338;2024-02-23T00:12:53;58.83;;;43.88;;
70592;SDS011;58294;42.988;20.338;2024-02-23T00:15:19;61.25;;;48.50;;
70592;SDS011;58294;42.988;20.338;2024-02-23T00:17:44;66.97;;;53.97;;
70592;SDS011;58294;42.988;20.338;2024-02-23T00:20:10;73.22;;;56.20;;
70592;SDS011;58294;42.988;20.338;2024-02-23T00:22:37;81.97;;;58.17;;
70592;SDS011;58294;42.988;20.338;2024-02-23T00:25:04;67.53;;;52.10;;
70592;SDS011;58294;42.988;20.338;2024-02-23T00:27:30;66.55;;;53.33;;
70592;SDS011;58294;42.988;20.338;2024-02-23T00:29:56;77.65;;;53.70;;
70592;SDS011;58294;42.988;20.338;2024-02-23T00:32:22;67.57;;;51.00;;
70592;SDS011;58294;42.988;20.338;2024-02-23T00:34:48;62.67;;;47.45;;
70592;SDS011;58294;42.988;20.338;2024-02-23T00:37:14;84.15;;;62.80;;
70592;SDS011;58294;42.988;20.338;2024-02-23T00:39:40;86.55;;;64.80;;
70592;SDS011;58294;42.988;20.338;2024-02-23T00:42:06;71.82;;;55.25;;
70592;SDS011;58294;42.988;20.338;2024-02-23T00:44:32;71.15;;;55.20;;
70592;SDS011;58294;42.988;20.338;2024-02-23T00:46:59;76.43;;;55.00;;
70592;SDS011;58294;42.988;20.338;2024-02-23T00:49:29;68.38;;;55.65;;
70592;SDS011;58294;42.988;20.338;2024-02-23T00:51:55;61.60;;;45.90;;
70592;SDS011;58294;42.988;20.338;2024-02-23T00:54:21;61.60;;;47.90;;
70592;SDS011;58294;42.988;20.338;2024-02-23T00:56:47;69.45;;;56.97;;
70592;SDS011;58294;42.988;20.338;2024-02-23T00:59:13;87.53;;;65.75;;
70592;SDS011;58294;42.988;20.338;2024-02-23T01:01:39;92.75;;;72.20;;
70592;SDS011;58294;42.988;20.338;2024-02-23T01:04:05;98.10;;;82.80;;
70592;SDS011;58294;42.988;20.338;2024-02-23T01:06:30;103.18;;;78.78;;
70592;SDS011;58294;42.988;20.338;2024-02-23T01:08:56;101.13;;;79.15;;
70592;SDS011;58294;42.988;20.338;2024-02-23T01:11:22;109.80;;;83.97;;
70592;SDS011;58294;42.988;20.338;2024-02-23T01:13:48;113.10;;;91.28;;
70592;SDS011;58294;42.988;20.338;2024-02-23T01:16:14;124.40;;;98.55;;
70592;SDS011;58294;42.988;20.338;2024-02-23T01:18:40;132.57;;;107.63;;
70592;SDS011;58294;42.988;20.338;2024-02-23T01:21:06;160.50;;;114.15;;
70592;SDS011;58294;42.988;20.338;2024-02-23T01:23:32;174.57;;;128.55;;
70592;SDS011;58294;42.988;20.338;2024-02-23T01:25:58;159.60;;;121.07;;
70592;SDS011;58294;42.988;20.338;2024-02-23T01:28:25;154.50;;;120.38;;
70592;SDS011;58294;42.988;20.338;2024-02-23T01:30:51;153.30;;;118.07;;
70592;SDS011;58294;42.988;20.338;2024-02-23T01:33:16;198.10;;;139.95;;
70592;SDS011;58294;42.988;20.338;2024-02-23T01:35:42;221.10;;;164.30;;
70592;SDS011;58294;42.988;20.338;2024-02-23T01:38:08;227.80;;;163.48;;
70592;SDS011;58294;42.988;20.338;2024-02-23T01:40:34;169.07;;;129.13;;
70592;SDS011;58294;42.988;20.338;2024-02-23T01:43:03;139.68;;;111.30;;
70592;SDS011;58294;42.988;20.338;2024-02-23T01:45:30;122.13;;;95.63;;
70592;SDS011;58294;42.988;20.338;2024-02-23T01:47:57;113.20;;;87.90;;
70592;SDS011;58294;42.988;20.338;2024-02-23T01:50:24;114.18;;;87.85;;
70592;SDS011;58294;42.988;20.338;2024-02-23T01:52:50;107.97;;;84.60;;
70592;SDS011;58294;42.988;20.338;2024-02-23T01:55:20;93.20;;;76.47;;
70592;SDS011;58294;42.988;20.338;2024-02-23T01:57:47;95.60;;;76.18;;
70592;SDS011;58294;42.988;20.338;2024-02-23T02:00:17;96.20;;;78.60;;
70592;SDS011;58294;42.988;20.338;2024-02-23T02:02:44;100.53;;;77.90;;
70592;SDS011;58294;42.988;20.338;2024-02-23T02:05:10;106.57;;;84.57;;
70592;SDS011;58294;42.988;20.338;2024-02-23T02:07:36;104.13;;;84.65;;
70592;SDS011;58294;42.988;20.338;2024-02-23T02:10:03;113.20;;;84.65;;
70592;SDS011;58294;42.988;20.338;2024-02-23T02:12:31;126.32;;;92.93;;
70592;SDS011;58294;42.988;20.338;2024-02-23T02:14:57;111.53;;;89.18;;
70592;SDS011;58294;42.988;20.338;2024-02-23T02:17:25;169.23;;;127.03;;
70592;SDS011;58294;42.988;20.338;2024-02-23T02:19:51;229.63;;;167.45;;
70592;SDS011;58294;42.988;20.338;2024-02-23T02:22:18;211.77;;;157.05;;
70592;SDS011;58294;42.988;20.338;2024-02-23T02:24:44;215.05;;;147.50;;
70592;SDS011;58294;42.988;20.338;2024-02-23T02:27:11;211.27;;;145.05;;
70592;SDS011;58294;42.988;20.338;2024-02-23T02:29:37;193.00;;;137.65;;
70592;SDS011;58294;42.988;20.338;2024-02-23T02:32:03;169.25;;;119.45;;
70592;SDS011;58294;42.988;20.338;2024-02-23T02:34:29;161.57;;;119.18;;
70592;SDS011;58294;42.988;20.338;2024-02-23T02:36:55;138.90;;;101.93;;
70592;SDS011;58294;42.988;20.338;2024-02-23T02:39:21;116.28;;;95.35;;
70592;SDS011;58294;42.988;20.338;2024-02-23T02:41:50;126.00;;;100.07;;
70592;SDS011;58294;42.988;20.338;2024-02-23T02:44:16;143.27;;;107.60;;
70592;SDS011;58294;42.988;20.338;2024-02-23T02:46:42;192.75;;;143.60;;
70592;SDS011;58294;42.988;20.338;2024-02-23T02:49:07;207.27;;;150.73;;
70592;SDS011;58294;42.988;20.338;2024-02-23T02:51:33;133.20;;;102.75;;
70592;SDS011;58294;42.988;20.338;2024-02-23T02:54:00;167.13;;;130.48;;
70592;SDS011;58294;42.988;20.338;2024-02-23T02:56:26;175.63;;;133.05;;
70592;SDS011;58294;42.988;20.338;2024-02-23T02:58:51;153.40;;;119.13;;
70592;SDS011;58294;42.988;20.338;2024-02-23T03:01:17;169.73;;;125.30;;
70592;SDS011;58294;42.988;20.338;2024-02-23T03:03:43;159.98;;;119.75;;
70592;SDS011;58294;42.988;20.338;2024-02-23T03:06:09;140.25;;;112.65;;
70592;SDS011;58294;42.988;20.338;2024-02-23T03:08:35;121.85;;;97.38;;
70592;SDS011;58294;42.988;20.338;2024-02-23T03:11:00;106.78;;;82.00;;
70592;SDS011;58294;42.988;20.338;2024-02-23T03:13:26;102.15;;;81.70;;
70592;SDS011;58294;42.988;20.338;2024-02-23T03:15:52;103.03;;;81.38;;
70592;SDS011;58294;42.988;20.338;2024-02-23T03:18:18;104.50;;;81.47;;
70592;SDS011;58294;42.988;20.338;2024-02-23T03:20:44;108.00;;;86.65;;
70592;SDS011;58294;42.988;20.338;2024-02-23T03:23:11;135.27;;;108.45;;
70592;SDS011;58294;42.988;20.338;2024-02-23T03:25:37;161.20;;;123.28;;
70592;SDS011;58294;42.988;20.338;2024-02-23T03:28:03;149.65;;;120.03;;
70592;SDS011;58294;42.988;20.338;2024-02-23T03:30:28;153.57;;;115.45;;
70592;SDS011;58294;42.988;20.338;2024-02-23T03:32:54;129.38;;;99.68;;
70592;SDS011;58294;42.988;20.338;2024-02-23T03:35:20;125.65;;;103.47;;
70592;SDS011;58294;42.988;20.338;2024-02-23T03:37:46;125.45;;;101.13;;
70592;SDS011;58294;42.988;20.338;2024-02-23T03:40:12;141.65;;;110.35;;
70592;SDS011;58294;42.988;20.338;2024-02-23T03:42:38;137.90;;;106.07;;
70592;SDS011;58294;42.988;20.338;2024-02-23T03:45:04;133.35;;;107.75;;
70592;SDS011;58294;42.988;20.338;2024-02-23T03:47:30;137.32;;;109.82;;
70592;SDS011;58294;42.988;20.338;2024-02-23T03:49:56;131.00;;;106.72;;
70592;SDS011;58294;42.988;20.338;2024-02-23T03:52:22;132.15;;;103.85;;
70592;SDS011;58294;42.988;20.338;2024-02-23T03:54:48;136.40;;;108.90;;
70592;SDS011;58294;42.988;20.338;2024-02-23T03:57:14;135.25;;;105.65;;
70592;SDS011;58294;42.988;20.338;2024-02-23T03:59:50;126.40;;;100.32;;
70592;SDS011;58294;42.988;20.338;2024-02-23T04:02:17;133.18;;;104.38;;
70592;SDS011;58294;42.988;20.338;2024-02-23T04:04:43;131.57;;;101.55;;
70592;SDS011;58294;42.988;20.338;2024-02-23T04:07:09;126.82;;;99.60;;
70592;SDS011;58294;42.988;20.338;2024-02-23T04:09:34;128.70;;;100.15;;
70592;SDS011;58294;42.988;20.338;2024-02-23T04:12:00;135.38;;;104.57;;
70592;SDS011;58294;42.988;20.338;2024-02-23T04:14:26;134.77;;;106.65;;
70592;SDS011;58294;42.988;20.338;2024-02-23T04:16:52;134.10;;;105.72;;
70592;SDS011;58294;42.988;20.338;2024-02-23T04:19:18;127.43;;;100.80;;
70592;SDS011;58294;42.988;20.338;2024-02-23T04:21:43;131.48;;;99.68;;
70592;SDS011;58294;42.988;20.338;2024-02-23T04:24:09;133.50;;;106.20;;
70592;SDS011;58294;42.988;20.338;2024-02-23T04:26:35;134.85;;;103.63;;
70592;SDS011;58294;42.988;20.338;2024-02-23T04:29:01;129.82;;;102.65;;
70592;SDS011;58294;42.988;20.338;2024-02-23T04:31:27;121.35;;;100.65;;
70592;SDS011;58294;42.988;20.338;2024-02-23T04:33:52;132.95;;;102.00;;
70592;SDS011;58294;42.988;20.338;2024-02-23T04:36:19;116.95;;;94.80;;
70592;SDS011;58294;42.988;20.338;2024-02-23T04:38:48;117.60;;;95.68;;
70592;SDS011;58294;42.988;20.338;2024-02-23T04:41:13;108.30;;;94.00;;
70592;SDS011;58294;42.988;20.338;2024-02-23T04:43:39;127.93;;;100.70;;
70592;SDS011;58294;42.988;20.338;2024-02-23T04:46:05;126.95;;;96.15;;
70592;SDS011;58294;42.988;20.338;2024-02-23T04:48:31;100.43;;;81.55;;
70592;SDS011;58294;42.988;20.338;2024-02-23T04:50:57;84.38;;;70.90;;
70592;SDS011;58294;42.988;20.338;2024-02-23T04:53:23;102.32;;;81.50;;
70592;SDS011;58294;42.988;20.338;2024-02-23T04:55:49;113.25;;;87.45;;
70592;SDS011;58294;42.988;20.338;2024-02-23T04:58:15;127.63;;;102.78;;
70592;SDS011;58294;42.988;20.338;2024-02-23T05:00:41;91.38;;;74.97;;
70592;SDS011;58294;42.988;20.338;2024-02-23T05:03:07;85.65;;;70.10;;
70592;SDS011;58294;42.988;20.338;2024-02-23T05:05:35;90.07;;;65.35;;
70592;SDS011;58294;42.988;20.338;2024-02-23T05:08:00;91.38;;;71.38;;
70592;SDS011;58294;42.988;20.338;2024-02-23T05:10:26;88.90;;;69.18;;
70592;SDS011;58294;42.988;20.338;2024-02-23T05:12:53;92.43;;;76.40;;
70592;SDS011;58294;42.988;20.338;2024-02-23T05:15:19;99.55;;;77.47;;
70592;SDS011;58294;42.988;20.338;2024-02-23T05:17:45;106.05;;;86.53;;
70592;SDS011;58294;42.988;20.338;2024-02-23T05:20:11;121.68;;;94.93;;
70592;SDS011;58294;42.988;20.338;2024-02-23T05:22:38;97.90;;;75.28;;
70592;SDS011;58294;42.988;20.338;2024-02-23T05:25:04;94.70;;;70.38;;
70592;SDS011;58294;42.988;20.338;2024-02-23T05:27:31;97.20;;;81.65;;
70592;SDS011;58294;42.988;20.338;2024-02-23T05:29:57;98.70;;;78.50;;
70592;SDS011;58294;42.988;20.338;2024-02-23T05:32:22;108.88;;;85.85;;
70592;SDS011;58294;42.988;20.338;2024-02-23T05:34:48;83.45;;;69.50;;
70592;SDS011;58294;42.988;20.338;2024-02-23T05:37:16;74.85;;;59.75;;
70592;SDS011;58294;42.988;20.338;2024-02-23T05:39:42;84.65;;;67.22;;
70592;SDS011;58294;42.988;20.338;2024-02-23T05:42:11;85.78;;;65.20;;
70592;SDS011;58294;42.988;20.338;2024-02-23T05:44:37;80.32;;;61.33;;
70592;SDS011;58294;42.988;20.338;2024-02-23T05:47:04;52.92;;;46.17;;
70592;SDS011;58294;42.988;20.338;2024-02-23T05:49:30;45.85;;;38.83;;
70592;SDS011;58294;42.988;20.338;2024-02-23T05:51:56;46.17;;;39.08;;
70592;SDS011;58294;42.988;20.338;2024-02-23T05:54:22;60.25;;;45.80;;
70592;SDS011;58294;42.988;20.338;2024-02-23T05:56:48;198.02;;;139.25;;
70592;SDS011;58294;42.988;20.338;2024-02-23T05:59:14;109.63;;;74.32;;
70592;SDS011;58294;42.988;20.338;2024-02-23T06:01:40;112.80;;;73.20;;
70592;SDS011;58294;42.988;20.338;2024-02-23T06:04:06;102.40;;;73.28;;
70592;SDS011;58294;42.988;20.338;2024-02-23T06:06:32;137.43;;;87.72;;
70592;SDS011;58294;42.988;20.338;2024-02-23T06:08:58;88.35;;;62.40;;
70592;SDS011;58294;42.988;20.338;2024-02-23T06:11:25;274.30;;;173.98;;
70592;SDS011;58294;42.988;20.338;2024-02-23T06:13:50;179.20;;;119.90;;
70592;SDS011;58294;42.988;20.338;2024-02-23T06:16:16;173.20;;;133.73;;
70592;SDS011;58294;42.988;20.338;2024-02-23T06:18:42;173.30;;;131.65;;
70592;SDS011;58294;42.988;20.338;2024-02-23T06:21:15;207.52;;;149.13;;
70592;SDS011;58294;42.988;20.338;2024-02-23T06:23:42;312.85;;;237.05;;
70592;SDS011;58294;42.988;20.338;2024-02-23T06:26:09;395.20;;;293.75;;
70592;SDS011;58294;42.988;20.338;2024-02-23T06:28:35;376.48;;;278.80;;
70592;SDS011;58294;42.988;20.338;2024-02-23T06:31:06;315.90;;;233.55;;
70592;SDS011;58294;42.988;20.338;2024-02-23T06:33:33;352.52;;;265.92;;
70592;SDS011;58294;42.988;20.338;2024-02-23T06:35:58;386.80;;;280.70;;
70592;SDS011;58294;42.988;20.338;2024-02-23T06:38:24;469.75;;;323.20;;
70592;SDS011;58294;42.988;20.338;2024-02-23T06:40:51;432.20;;;289.27;;
70592;SDS011;58294;42.988;20.338;2024-02-23T06:43:17;378.85;;;256.08;;
70592;SDS011;58294;42.988;20.338;2024-02-23T06:45:43;366.40;;;259.63;;
70592;SDS011;58294;42.988;20.338;2024-02-23T06:48:09;336.05;;;246.98;;
70592;SDS011;58294;42.988;20.338;2024-02-23T06:50:35;252.50;;;180.75;;
70592;SDS011;58294;42.988;20.338;2024-02-23T06:53:01;223.70;;;172.63;;
70592;SDS011;58294;42.988;20.338;2024-02-23T06:55:27;170.68;;;128.38;;
70592;SDS011;58294;42.988;20.338;2024-02-23T06:57:53;166.35;;;129.40;;
70592;SDS011;58294;42.988;20.338;2024-02-23T07:00:20;203.85;;;154.60;;
70592;SDS011;58294;42.988;20.338;2024-02-23T07:02:49;212.27;;;160.77;;
70592;SDS011;58294;42.988;20.338;2024-02-23T07:05:14;213.13;;;162.88;;
70592;SDS011;58294;42.988;20.338;2024-02-23T07:07:40;213.75;;;165.25;;
70592;SDS011;58294;42.988;20.338;2024-02-23T07:10:06;206.20;;;152.52;;
70592;SDS011;58294;42.988;20.338;2024-02-23T07:12:33;187.77;;;142.90;;
70592;SDS011;58294;42.988;20.338;2024-02-23T07:14:59;153.15;;;121.43;;
70592;SDS011;58294;42.988;20.338;2024-02-23T07:17:25;144.00;;;110.32;;
70592;SDS011;58294;42.988;20.338;2024-02-23T07:19:50;143.07;;;115.30;;
70592;SDS011;58294;42.988;20.338;2024-02-23T07:22:18;140.23;;;110.55;;
70592;SDS011;58294;42.988;20.338;2024-02-23T07:24:45;154.15;;;117.95;;
70592;SDS011;58294;42.988;20.338;2024-02-23T07:27:11;168.23;;;123.65;;
70592;SDS011;58294;42.988;20.338;2024-02-23T07:29:37;156.23;;;120.10;;
70592;SDS011;58294;42.988;20.338;2024-02-23T07:32:02;176.05;;;136.82;;
70592;SDS011;58294;42.988;20.338;2024-02-23T07:34:29;162.98;;;127.45;;
70592;SDS011;58294;42.988;20.338;2024-02-23T07:36:56;178.13;;;133.70;;
70592;SDS011;58294;42.988;20.338;2024-02-23T07:39:22;169.23;;;130.30;;
70592;SDS011;58294;42.988;20.338;2024-02-23T07:41:48;165.05;;;135.38;;
70592;SDS011;58294;42.988;20.338;2024-02-23T07:44:14;180.13;;;140.27;;
70592;SDS011;58294;42.988;20.338;2024-02-23T07:46:40;180.07;;;142.10;;
70592;SDS011;58294;42.988;20.338;2024-02-23T07:49:08;165.93;;;129.13;;
70592;SDS011;58294;42.988;20.338;2024-02-23T07:51:35;173.98;;;135.95;;
70592;SDS011;58294;42.988;20.338;2024-02-23T07:54:01;172.43;;;135.15;;
70592;SDS011;58294;42.988;20.338;2024-02-23T07:56:27;154.75;;;124.78;;
70592;SDS011;58294;42.988;20.338;2024-02-23T07:58:53;148.32;;;120.40;;
70592;SDS011;58294;42.988;20.338;2024-02-23T08:01:19;172.80;;;153.80;;
70592;SDS011;58294;42.988;20.338;2024-02-23T08:03:45;142.48;;;111.32;;
70592;SDS011;58294;42.988;20.338;2024-02-23T08:06:11;127.85;;;108.32;;
70592;SDS011;58294;42.988;20.338;2024-02-23T08:08:38;148.82;;;120.10;;
70592;SDS011;58294;42.988;20.338;2024-02-23T08:11:04;143.55;;;112.75;;
70592;SDS011;58294;42.988;20.338;2024-02-23T08:13:30;122.85;;;97.78;;
70592;SDS011;58294;42.988;20.338;2024-02-23T08:15:57;120.75;;;97.00;;
70592;SDS011;58294;42.988;20.338;2024-02-23T08:18:23;142.48;;;116.13;;
70592;SDS011;58294;42.988;20.338;2024-02-23T08:20:49;123.47;;;101.13;;
70592;SDS011;58294;42.988;20.338;2024-02-23T08:23:14;126.30;;;104.22;;
70592;SDS011;58294;42.988;20.338;2024-02-23T08:25:40;119.28;;;98.95;;
70592;SDS011;58294;42.988;20.338;2024-02-23T08:28:07;141.07;;;120.72;;
70592;SDS011;58294;42.988;20.338;2024-02-23T08:30:33;127.00;;;113.47;;
70592;SDS011;58294;42.988;20.338;2024-02-23T08:32:59;87.20;;;68.80;;
70592;SDS011;58294;42.988;20.338;2024-02-23T08:35:25;86.40;;;69.40;;
70592;SDS011;58294;42.988;20.338;2024-02-23T08:37:51;88.15;;;70.03;;
70592;SDS011;58294;42.988;20.338;2024-02-23T08:40:17;79.80;;;64.47;;
70592;SDS011;58294;42.988;20.338;2024-02-23T08:42:43;74.72;;;62.13;;
70592;SDS011;58294;42.988;20.338;2024-02-23T08:45:09;64.53;;;54.83;;
70592;SDS011;58294;42.988;20.338;2024-02-23T08:47:37;82.22;;;59.40;;
70592;SDS011;58294;42.988;20.338;2024-02-23T08:50:03;102.70;;;91.93;;
70592;SDS011;58294;42.988;20.338;2024-02-23T08:52:29;75.05;;;65.35;;
70592;SDS011;58294;42.988;20.338;2024-02-23T08:54:55;72.65;;;61.63;;
70592;SDS011;58294;42.988;20.338;2024-02-23T08:57:21;78.65;;;64.72;;
70592;SDS011;58294;42.988;20.338;2024-02-23T08:59:51;74.03;;;63.15;;
70592;SDS011;58294;42.988;20.338;2024-02-23T09:02:17;72.53;;;61.13;;
70592;SDS011;58294;42.988;20.338;2024-02-23T09:04:43;63.47;;;51.15;;
70592;SDS011;58294;42.988;20.338;2024-02-23T09:07:10;49.72;;;41.53;;
70592;SDS011;58294;42.988;20.338;2024-02-23T09:09:37;51.60;;;43.63;;
70592;SDS011;58294;42.988;20.338;2024-02-23T09:12:02;63.13;;;48.80;;
70592;SDS011;58294;42.988;20.338;2024-02-23T09:14:28;63.33;;;54.03;;
70592;SDS011;58294;42.988;20.338;2024-02-23T09:16:54;67.88;;;56.97;;
70592;SDS011;58294;42.988;20.338;2024-02-23T09:19:21;66.75;;;56.97;;
70592;SDS011;58294;42.988;20.338;2024-02-23T09:21:47;85.03;;;58.83;;
70592;SDS011;58294;42.988;20.338;2024-02-23T09:24:13;76.35;;;55.03;;
70592;SDS011;58294;42.988;20.338;2024-02-23T09:26:38;61.63;;;50.67;;
70592;SDS011;58294;42.988;20.338;2024-02-23T09:29:04;75.97;;;64.00;;
70592;SDS011;58294;42.988;20.338;2024-02-23T09:31:30;186.55;;;167.63;;
70592;SDS011;58294;42.988;20.338;2024-02-23T09:33:57;129.45;;;109.25;;
70592;SDS011;58294;42.988;20.338;2024-02-23T09:36:24;107.82;;;95.43;;
70592;SDS011;58294;42.988;20.338;2024-02-23T09:38:50;116.90;;;104.55;;
70592;SDS011;58294;42.988;20.338;2024-02-23T09:41:20;135.93;;;121.95;;
70592;SDS011;58294;42.988;20.338;2024-02-23T09:43:47;105.15;;;88.20;;
70592;SDS011;58294;42.988;20.338;2024-02-23T09:46:18;72.95;;;64.97;;
70592;SDS011;58294;42.988;20.338;2024-02-23T09:48:44;86.55;;;71.80;;
70592;SDS011;58294;42.988;20.338;2024-02-23T09:51:14;158.13;;;123.55;;
70592;SDS011;58294;42.988;20.338;2024-02-23T09:53:41;153.70;;;127.03;;
70592;SDS011;58294;42.988;20.338;2024-02-23T09:56:10;173.10;;;128.15;;
70592;SDS011;58294;42.988;20.338;2024-02-23T09:58:36;124.95;;;106.25;;
70592;SDS011;58294;42.988;20.338;2024-02-23T10:01:04;117.25;;;104.53;;
70592;SDS011;58294;42.988;20.338;2024-02-23T10:03:30;140.00;;;107.43;;
70592;SDS011;58294;42.988;20.338;2024-02-23T10:05:56;110.10;;;93.80;;
70592;SDS011;58294;42.988;20.338;2024-02-23T10:08:23;122.00;;;89.90;;
70592;SDS011;58294;42.988;20.338;2024-02-23T10:10:48;88.22;;;77.07;;
70592;SDS011;58294;42.988;20.338;2024-02-23T10:13:24;95.97;;;78.80;;
70592;SDS011;58294;42.988;20.338;2024-02-23T10:15:50;108.60;;;87.10;;
70592;SDS011;58294;42.988;20.338;2024-02-23T10:18:17;60.38;;;49.40;;
70592;SDS011;58294;42.988;20.338;2024-02-23T10:20:43;63.28;;;51.72;;
70592;SDS011;58294;42.988;20.338;2024-02-23T10:23:09;47.92;;;35.80;;
70592;SDS011;58294;42.988;20.338;2024-02-23T10:25:35;21.45;;;11.70;;
70592;SDS011;58294;42.988;20.338;2024-02-23T10:28:04;27.70;;;16.05;;
70592;SDS011;58294;42.988;20.338;2024-02-23T10:30:31;110.35;;;79.63;;
70592;SDS011;58294;42.988;20.338;2024-02-23T10:32:58;24.35;;;17.20;;
70592;SDS011;58294;42.988;20.338;2024-02-23T10:35:25;9.20;;;7.75;;
70592;SDS011;58294;42.988;20.338;2024-02-23T10:37:52;9.07;;;6.53;;
70592;SDS011;58294;42.988;20.338;2024-02-23T10:40:19;8.55;;;6.45;;
70592;SDS011;58294;42.988;20.338;2024-02-23T10:42:47;16.70;;;13.98;;
70592;SDS011;58294;42.988;20.338;2024-02-23T10:45:19;30.23;;;23.83;;
70592;SDS011;58294;42.988;20.338;2024-02-23T10:47:49;12.32;;;11.05;;
70592;SDS011;58294;42.988;20.338;2024-02-23T10:50:16;15.55;;;7.40;;
70592;SDS011;58294;42.988;20.338;2024-02-23T10:52:44;8.10;;;5.78;;
70592;SDS011;58294;42.988;20.338;2024-02-23T10:55:14;9.50;;;7.20;;
70592;SDS011;58294;42.988;20.338;2024-02-23T10:57:40;23.55;;;10.23;;
70592;SDS011;58294;42.988;20.338;2024-02-23T11:00:07;10.82;;;7.88;;
70592;SDS011;58294;42.988;20.338;2024-02-23T11:02:43;17.52;;;10.10;;
70592;SDS011;58294;42.988;20.338;2024-02-23T11:05:11;19.08;;;8.80;;
70592;SDS011;58294;42.988;20.338;2024-02-23T11:07:40;9.70;;;6.10;;
70592;SDS011;58294;42.988;20.338;2024-02-23T11:10:06;15.68;;;7.07;;
70592;SDS011;58294;42.988;20.338;2024-02-23T11:12:34;11.05;;;7.22;;
70592;SDS011;58294;42.988;20.338;2024-02-23T11:15:01;8.23;;;6.20;;
70592;SDS011;58294;42.988;20.338;2024-02-23T11:17:29;12.70;;;9.60;;
70592;SDS011;58294;42.988;20.338;2024-02-23T11:19:57;36.55;;;25.90;;
70592;SDS011;58294;42.988;20.338;2024-02-23T11:22:26;17.55;;;14.15;;
70592;SDS011;58294;42.988;20.338;2024-02-23T11:24:59;11.20;;;7.72;;
70592;SDS011;58294;42.988;20.338;2024-02-23T11:27:33;27.20;;;23.15;;
70592;SDS011;58294;42.988;20.338;2024-02-23T11:30:04;14.75;;;12.70;;
70592;SDS011;58294;42.988;20.338;2024-02-23T11:32:38;50.90;;;43.08;;
70592;SDS011;58294;42.988;20.338;2024-02-23T11:35:05;11.00;;;9.60;;
70592;SDS011;58294;42.988;20.338;2024-02-23T11:40:14;19.33;;;9.25;;
70592;SDS011;58294;42.988;20.338;2024-02-23T11:42:42;14.27;;;9.93;;
70592;SDS011;58294;42.988;20.338;2024-02-23T11:45:08;13.90;;;6.22;;
70592;SDS011;58294;42.988;20.338;2024-02-23T11:47:36;11.20;;;6.75;;
70592;SDS011;58294;42.988;20.338;2024-02-23T11:50:03;18.90;;;7.40;;
70592;SDS011;58294;42.988;20.338;2024-02-23T11:52:33;9.25;;;8.00;;
70592;SDS011;58294;42.988;20.338;2024-02-23T11:54:59;8.20;;;7.13;;
70592;SDS011;58294;42.988;20.338;2024-02-23T11:57:25;79.25;;;46.63;;
70592;SDS011;58294;42.988;20.338;2024-02-23T11:59:51;115.07;;;82.00;;
70592;SDS011;58294;42.988;20.338;2024-02-23T12:02:17;31.25;;;23.75;;
70592;SDS011;58294;42.988;20.338;2024-02-23T12:04:43;25.17;;;17.60;;
70592;SDS011;58294;42.988;20.338;2024-02-23T12:07:09;35.38;;;31.60;;
70592;SDS011;58294;42.988;20.338;2024-02-23T12:09:35;10.65;;;9.55;;
70592;SDS011;58294;42.988;20.338;2024-02-23T12:12:01;13.80;;;10.18;;
70592;SDS011;58294;42.988;20.338;2024-02-23T12:14:27;7.55;;;6.85;;
70592;SDS011;58294;42.988;20.338;2024-02-23T12:16:53;17.70;;;9.25;;
70592;SDS011;58294;42.988;20.338;2024-02-23T12:19:19;13.02;;;6.60;;
70592;SDS011;58294;42.988;20.338;2024-02-23T12:21:47;9.32;;;6.35;;
70592;SDS011;58294;42.988;20.338;2024-02-23T12:24:13;13.20;;;9.35;;
70592;SDS011;58294;42.988;20.338;2024-02-23T12:26:39;15.43;;;12.18;;
70592;SDS011;58294;42.988;20.338;2024-02-23T12:29:05;15.10;;;12.45;;
70592;SDS011;58294;42.988;20.338;2024-02-23T12:31:31;13.85;;;6.82;;
70592;SDS011;58294;42.988;20.338;2024-02-23T12:33:58;19.38;;;11.93;;
70592;SDS011;58294;42.988;20.338;2024-02-23T12:36:24;18.05;;;10.38;;
70592;SDS011;58294;42.988;20.338;2024-02-23T12:38:50;61.72;;;18.10;;
70592;SDS011;58294;42.988;20.338;2024-02-23T12:41:15;13.93;;;6.88;;
70592;SDS011;58294;42.988;20.338;2024-02-23T12:43:41;12.15;;;6.97;;
70592;SDS011;58294;42.988;20.338;2024-02-23T12:46:07;10.35;;;6.55;;
70592;SDS011;58294;42.988;20.338;2024-02-23T12:48:36;14.57;;;7.70;;
70592;SDS011;58294;42.988;20.338;2024-02-23T12:51:02;18.10;;;8.32;;
70592;SDS011;58294;42.988;20.338;2024-02-23T12:53:35;11.73;;;8.55;;
70592;SDS011;58294;42.988;20.338;2024-02-23T12:56:03;8.40;;;5.60;;
70592;SDS011;58294;42.988;20.338;2024-02-23T12:58:31;8.52;;;5.40;;
70592;SDS011;58294;42.988;20.338;2024-02-23T13:00:57;16.58;;;13.10;;
70592;SDS011;58294;42.988;20.338;2024-02-23T13:03:24;18.05;;;13.55;;
70592;SDS011;58294;42.988;20.338;2024-02-23T13:05:52;29.20;;;26.75;;
70592;SDS011;58294;42.988;20.338;2024-02-23T13:08:18;18.15;;;11.13;;
70592;SDS011;58294;42.988;20.338;2024-02-23T13:10:44;11.90;;;9.98;;
70592;SDS011;58294;42.988;20.338;2024-02-23T13:13:10;20.73;;;13.48;;
70592;SDS011;58294;42.988;20.338;2024-02-23T13:15:38;17.27;;;7.55;;
70592;SDS011;58294;42.988;20.338;2024-02-23T13:18:04;11.23;;;6.72;;
70592;SDS011;58294;42.988;20.338;2024-02-23T13:20:31;8.82;;;5.10;;
70592;SDS011;58294;42.988;20.338;2024-02-23T13:22:56;14.35;;;10.20;;
70592;SDS011;58294;42.988;20.338;2024-02-23T13:25:22;12.77;;;8.25;;
70592;SDS011;58294;42.988;20.338;2024-02-23T13:27:48;13.75;;;6.03;;
70592;SDS011;58294;42.988;20.338;2024-02-23T13:30:14;10.85;;;7.60;;
70592;SDS011;58294;42.988;20.338;2024-02-23T13:32:40;4.85;;;4.10;;
70592;SDS011;58294;42.988;20.338;2024-02-23T13:35:06;5.03;;;4.18;;
70592;SDS011;58294;42.988;20.338;2024-02-23T13:37:33;11.85;;;4.97;;
70592;SDS011;58294;42.988;20.338;2024-02-23T13:39:59;11.20;;;6.03;;
70592;SDS011;58294;42.988;20.338;2024-02-23T13:42:26;13.98;;;5.68;;
70592;SDS011;58294;42.988;20.338;2024-02-23T13:44:52;19.92;;;7.50;;
70592;SDS011;58294;42.988;20.338;2024-02-23T13:47:17;15.93;;;5.55;;
70592;SDS011;58294;42.988;20.338;2024-02-23T13:49:43;17.02;;;6.43;;
70592;SDS011;58294;42.988;20.338;2024-02-23T13:52:09;12.35;;;5.05;;
70592;SDS011;58294;42.988;20.338;2024-02-23T13:54:35;10.13;;;4.45;;
70592;SDS011;58294;42.988;20.338;2024-02-23T13:57:01;13.82;;;9.13;;
70592;SDS011;58294;42.988;20.338;2024-02-23T13:59:27;11.52;;;8.75;;